Time;durP1;ratioP1;P1;durP2;ratioP2;P2;SDS_P1;SDS_P2;PMS_P1;PMS_P2;Temp;Humidity;BMP_temperature;BMP_pressure;BME280_temperature;BME280_humidity;BME280_pressure;Samples;Min_cycle;Max_cycle;Signal;HPM_P1;HPM_P2
2022/08/07 00:03:02;;;;;;;7.47;6.78;;;;;;;16.35;67.17;102629.72;6007622;29;20231;-70
2022/08/07 00:06:24;;;;;;;7.57;6.93;;;;;;;16.42;67.14;102631.75;6011574;29;20234;-70
2022/08/07 00:09:46;;;;;;;8.07;7.43;;;;;;;16.43;66.61;102627.19;6014135;29;20235;-71
2022/08/07 00:13:06;;;;;;;7.05;6.35;;;;;;;16.41;66.93;102621.03;6014326;29;20239;-70
2022/08/07 00:16:28;;;;;;;7.53;6.68;;;;;;;16.40;66.98;102624.72;6013225;29;20234;-69
2022/08/07 00:19:49;;;;;;;9.32;7.75;;;;;;;16.08;68.07;102626.59;6015596;29;20227;-70
2022/08/07 00:23:11;;;;;;;9.07;7.50;;;;;;;16.12;67.55;102619.91;6012688;29;20238;-70
2022/08/07 00:26:32;;;;;;;8.98;8.02;;;;;;;16.13;67.42;102611.59;6019009;29;20577;-70
2022/08/07 00:29:53;;;;;;;9.23;8.30;;;;;;;16.02;68.34;102614.34;6014223;29;20234;-71
2022/08/07 00:33:14;;;;;;;8.35;7.65;;;;;;;16.07;68.78;102613.97;6014842;29;20238;-71
2022/08/07 00:36:35;;;;;;;8.10;7.30;;;;;;;16.28;67.58;102612.16;6013432;29;20238;-71
2022/08/07 00:39:57;;;;;;;9.00;8.15;;;;;;;16.23;68.03;102609.00;6011234;29;20238;-70
2022/08/07 00:43:18;;;;;;;10.35;8.25;;;;;;;16.09;68.24;102610.13;6022077;29;20246;-71
2022/08/07 00:46:39;;;;;;;10.95;7.90;;;;;;;15.79;69.38;102619.00;6010593;29;20230;-71
2022/08/07 00:50:00;;;;;;;9.98;9.00;;;;;;;15.88;69.47;102603.78;6011612;29;20234;-71
2022/08/07 00:53:22;;;;;;;8.40;7.60;;;;;;;15.82;69.32;102605.16;6007815;29;20550;-71
2022/08/07 00:56:44;;;;;;;10.07;8.02;;;;;;;15.73;69.44;102602.31;6007815;29;20863;-71
2022/08/07 01:00:07;;;;;;;10.00;8.18;;;;;;;15.78;69.43;102605.53;6007082;29;20308;-70
2022/08/07 01:03:28;;;;;;;10.23;8.52;;;;;;;15.78;69.62;102609.13;6008676;29;21568;-70
2022/08/07 01:06:49;;;;;;;10.15;8.80;;;;;;;15.83;69.37;102612.31;6004271;29;20239;-71
2022/08/07 01:10:10;;;;;;;9.18;8.32;;;;;;;15.78;69.78;102608.25;6007084;29;20239;-70
2022/08/07 01:13:32;;;;;;;9.17;8.30;;;;;;;15.76;69.84;102611.13;6011053;29;20235;-70
2022/08/07 01:16:54;;;;;;;8.48;7.75;;;;;;;15.60;70.09;102598.91;6007764;29;20633;-69
2022/08/07 01:20:17;;;;;;;8.88;8.02;;;;;;;15.53;70.36;102603.97;5998884;29;20621;-71
2022/08/07 01:23:44;;;;;;;9.35;8.52;;;;;;;15.47;71.16;102601.78;6005360;29;21112;-71
2022/08/07 01:27:07;;;;;;;9.53;8.53;;;;;;;15.53;70.81;102598.56;6007655;29;21651;-71
2022/08/07 01:30:30;;;;;;;9.48;8.57;;;;;;;15.43;70.65;102599.44;6006418;29;20242;-71
2022/08/07 01:33:52;;;;;;;12.20;9.60;;;;;;;15.43;71.07;102594.00;6022025;29;20242;-70
2022/08/07 01:37:16;;;;;;;9.50;8.52;;;;;;;15.39;71.12;102598.78;6010182;29;20242;-70
2022/08/07 01:40:40;;;;;;;10.30;9.25;;;;;;;15.35;71.28;102597.31;6013249;29;20317;-71
2022/08/07 01:44:02;;;;;;;9.85;8.93;;;;;;;15.52;70.38;102594.09;6008376;29;20250;-70
2022/08/07 01:47:26;;;;;;;9.25;8.35;;;;;;;15.54;70.49;102593.97;6006436;29;20238;-70
2022/08/07 01:50:53;;;;;;;9.93;8.93;;;;;;;15.50;70.51;102593.34;6010273;29;20508;-70
2022/08/07 01:54:15;;;;;;;8.27;7.53;;;;;;;15.58;70.67;102590.03;6007553;29;21763;-71
2022/08/07 01:57:45;;;;;;;10.80;8.90;;;;;;;15.47;71.07;102590.91;6002388;29;20358;-72
2022/08/07 02:01:11;;;;;;;9.27;8.38;;;;;;;15.34;71.03;102592.84;6022023;29;20238;-71
2022/08/07 02:04:39;;;;;;;9.50;8.60;;;;;;;15.24;71.31;102594.59;6011396;29;20243;-71
2022/08/07 02:08:09;;;;;;;8.75;7.85;;;;;;;14.99;71.94;102600.28;6012938;29;20226;-71
2022/08/07 02:11:36;;;;;;;8.70;7.97;;;;;;;15.20;71.97;102599.41;6011245;29;20256;-71
2022/08/07 02:15:01;;;;;;;10.03;8.47;;;;;;;15.32;71.56;102592.13;6008211;29;21086;-71
2022/08/07 02:18:32;;;;;;;8.57;7.60;;;;;;;15.44;71.46;102593.84;6021225;29;20242;-71
2022/08/07 02:21:55;;;;;;;8.83;8.03;;;;;;;15.33;71.60;102598.41;6009645;29;20239;-71
2022/08/07 02:25:20;;;;;;;8.77;7.90;;;;;;;15.18;71.97;102587.81;6021015;29;20242;-72
2022/08/07 02:28:50;;;;;;;8.90;8.10;;;;;;;15.18;71.80;102581.50;6009127;29;20243;-70
2022/08/07 02:32:15;;;;;;;9.83;8.80;;;;;;;15.28;71.79;102582.47;6008619;29;20261;-72
2022/08/07 02:35:38;;;;;;;9.57;7.97;;;;;;;15.13;71.81;102583.72;6005797;29;20239;-69
2022/08/07 02:39:04;;;;;;;10.20;8.30;;;;;;;15.14;72.33;102577.31;6009086;29;20258;-70
2022/08/07 02:42:25;;;;;;;8.57;7.80;;;;;;;15.05;72.53;102578.03;6020365;29;20238;-71
2022/08/07 02:45:49;;;;;;;10.20;9.17;;;;;;;14.97;72.74;102581.38;6005247;29;20234;-71
2022/08/07 02:49:11;;;;;;;9.53;8.60;;;;;;;14.81;73.22;102580.84;6005430;29;20583;-72
2022/08/07 02:52:36;;;;;;;8.80;7.93;;;;;;;14.90;73.91;102580.13;6006902;29;20242;-70
2022/08/07 02:56:00;;;;;;;9.43;8.60;;;;;;;14.88;73.06;102583.94;6016954;29;20231;-71
2022/08/07 02:59:25;;;;;;;8.60;7.80;;;;;;;14.98;73.19;102582.22;6017608;29;20633;-71
2022/08/07 03:02:51;;;;;;;9.03;8.13;;;;;;;14.95;73.48;102577.06;6020011;29;20848;-70
2022/08/07 03:06:15;;;;;;;8.73;7.80;;;;;;;14.85;73.87;102574.19;5998334;29;20234;-71
2022/08/07 03:09:37;;;;;;;8.97;8.17;;;;;;;14.74;74.20;102576.03;6021730;29;20814;-71
2022/08/07 03:13:00;;;;;;;9.93;8.70;;;;;;;14.75;74.26;102575.06;6007180;29;20247;-70
2022/08/07 03:16:21;;;;;;;8.90;8.05;;;;;;;14.72;74.10;102573.47;6006196;29;20258;-71
2022/08/07 03:19:42;;;;;;;10.43;8.40;;;;;;;14.71;73.61;102565.41;6019039;29;20238;-70
2022/08/07 03:23:07;;;;;;;10.43;9.43;;;;;;;14.61;74.72;102568.00;6008598;29;20668;-70
2022/08/07 03:26:32;;;;;;;10.03;9.03;;;;;;;14.45;75.45;102567.47;6006008;29;20592;-70
2022/08/07 03:29:57;;;;;;;13.43;9.43;;;;;;;14.63;75.21;102566.03;6020736;29;20322;-71
2022/08/07 03:33:20;;;;;;;11.43;9.67;;;;;;;14.48;75.87;102558.25;6007764;29;20230;-71
2022/08/07 03:36:43;;;;;;;9.67;8.77;;;;;;;14.57;75.21;102568.34;6004481;29;20234;-71
2022/08/07 03:40:08;;;;;;;8.60;7.80;;;;;;;14.51;75.21;102561.56;6012322;29;20283;-70
2022/08/07 03:43:32;;;;;;;9.37;8.57;;;;;;;14.52;75.43;102568.72;6020670;29;20601;-70
2022/08/07 03:46:54;;;;;;;10.47;8.67;;;;;;;14.60;75.25;102568.13;6009336;29;20262;-70
2022/08/07 03:50:18;;;;;;;12.17;10.53;;;;;;;14.52;75.47;102568.72;6012302;29;20230;-70
2022/08/07 03:53:40;;;;;;;9.90;8.90;;;;;;;14.62;74.83;102569.75;6010293;29;20231;-71
2022/08/07 03:57:04;;;;;;;8.30;7.57;;;;;;;14.57;75.09;102568.34;6005254;29;20264;-71
2022/08/07 04:00:28;;;;;;;9.70;8.70;;;;;;;14.56;75.43;102577.50;6011516;29;20239;-70
2022/08/07 04:03:50;;;;;;;11.00;9.60;;;;;;;14.46;75.54;102571.06;6008180;29;20238;-71
2022/08/07 04:07:11;;;;;;;10.53;9.53;;;;;;;14.41;75.83;102582.28;6010904;29;20578;-71
2022/08/07 04:10:33;;;;;;;9.00;8.30;;;;;;;14.47;75.92;102581.81;6011853;29;20321;-71
2022/08/07 04:13:56;;;;;;;10.43;9.43;;;;;;;14.55;75.43;102587.50;6007909;29;20257;-71
2022/08/07 04:17:18;;;;;;;9.95;9.05;;;;;;;14.71;75.34;102585.28;6026182;29;20238;-71
2022/08/07 04:20:39;;;;;;;11.40;9.93;;;;;;;14.66;75.24;102590.25;6012774;29;20664;-70
2022/08/07 04:24:01;;;;;;;10.87;9.30;;;;;;;14.52;75.84;102589.59;6013025;29;20235;-70
2022/08/07 04:27:22;;;;;;;12.13;11.00;;;;;;;14.56;75.88;102589.19;6006516;29;20571;-71
2022/08/07 04:30:49;;;;;;;13.10;10.00;;;;;;;14.68;75.59;102592.81;6012111;29;20238;-71
2022/08/07 04:34:14;;;;;;;11.50;10.33;;;;;;;14.75;75.37;102586.78;6011220;29;20241;-71
2022/08/07 04:37:37;;;;;;;12.83;9.67;;;;;;;14.81;74.94;102593.59;6011662;29;20238;-71
2022/08/07 04:40:59;;;;;;;12.33;10.23;;;;;;;14.86;75.46;102611.25;6012276;29;20239;-71
2022/08/07 04:44:36;;;;;;;11.37;10.30;;;;;;;14.83;75.67;102595.16;6012459;29;20246;-71
2022/08/07 04:48:04;;;;;;;10.80;9.77;;;;;;;14.93;75.45;102607.06;6010630;29;20254;-71
2022/08/07 04:51:33;;;;;;;11.17;10.10;;;;;;;15.06;74.77;102605.06;6006460;29;20234;-70
2022/08/07 04:55:00;;;;;;;11.50;10.40;;;;;;;15.15;75.60;102607.06;6007710;29;20264;-70
2022/08/07 04:58:30;;;;;;;11.43;10.43;;;;;;;15.20;74.54;102610.28;6004690;29;20979;-71
2022/08/07 05:02:00;;;;;;;10.60;9.60;;;;;;;15.25;75.47;102611.78;5999988;29;20845;-71
2022/08/07 05:05:26;;;;;;;12.30;11.07;;;;;;;15.28;74.94;102612.38;6007311;29;20234;-70
2022/08/07 05:08:55;;;;;;;10.33;9.43;;;;;;;15.36;74.35;102607.19;6010093;29;20235;-70
2022/08/07 05:12:26;;;;;;;12.90;11.47;;;;;;;15.31;75.29;102614.00;6010144;29;20568;-70
2022/08/07 05:15:51;;;;;;;14.07;10.90;;;;;;;15.38;75.11;102615.19;6023661;29;20242;-69
2022/08/07 05:19:16;;;;;;;11.27;10.18;;;;;;;15.52;75.04;102620.44;6012267;29;21150;-70
2022/08/07 05:22:44;;;;;;;11.53;10.33;;;;;;;15.65;74.64;102619.28;6012709;29;20234;-70
2022/08/07 05:26:10;;;;;;;12.88;10.85;;;;;;;15.66;74.45;102618.31;6012882;29;20231;-69
2022/08/07 05:29:33;;;;;;;12.68;11.38;;;;;;;15.71;74.61;102609.75;6015163;29;20246;-69
2022/08/07 05:32:56;;;;;;;12.52;10.05;;;;;;;15.73;74.59;102618.63;6016278;29;20246;-69
2022/08/07 05:36:19;;;;;;;12.27;10.98;;;;;;;15.84;74.63;102613.19;6017920;29;20617;-69
2022/08/07 05:39:41;;;;;;;11.07;9.63;;;;;;;16.07;74.22;102625.72;6016843;29;20242;-70
2022/08/07 05:43:03;;;;;;;10.47;9.57;;;;;;;16.02;73.90;102620.66;6007045;29;20242;-70
2022/08/07 05:46:25;;;;;;;10.98;9.98;;;;;;;16.15;73.75;102614.19;6010315;29;20537;-70
2022/08/07 05:49:48;;;;;;;11.07;9.90;;;;;;;16.10;74.17;102621.91;6017284;29;20227;-70
2022/08/07 05:53:10;;;;;;;11.40;10.30;;;;;;;15.97;74.15;102617.50;6007919;29;20226;-70
2022/08/07 05:56:36;;;;;;;12.75;10.80;;;;;;;16.00;74.02;102613.63;6010694;29;20230;-69
2022/08/07 05:59:58;;;;;;;10.82;9.73;;;;;;;16.38;72.89;102608.53;6011388;29;20262;-70
2022/08/07 06:03:36;;;;;;;12.00;10.73;;;;;;;16.56;72.48;102611.56;6015962;29;20265;-70
2022/08/07 06:06:58;;;;;;;11.75;9.90;;;;;;;16.47;71.85;102618.63;6016803;29;20598;-70
2022/08/07 06:10:23;;;;;;;10.63;8.80;;;;;;;16.45;72.39;102608.88;6015062;29;20423;-70
2022/08/07 06:13:46;;;;;;;10.00;9.00;;;;;;;16.39;72.24;102606.69;6023067;29;20234;-70
2022/08/07 06:17:08;;;;;;;10.82;9.77;;;;;;;16.69;71.28;102612.22;6008992;29;20234;-70
2022/08/07 06:20:35;;;;;;;10.53;9.47;;;;;;;16.66;70.96;102607.06;6007513;29;20238;-69
2022/08/07 06:23:57;;;;;;;10.70;8.23;;;;;;;16.56;72.07;102612.41;6012109;29;20583;-70
2022/08/07 06:27:21;;;;;;;10.73;9.67;;;;;;;16.88;70.94;102611.47;6011850;29;20684;-71
2022/08/07 06:30:44;;;;;;;10.60;8.70;;;;;;;17.58;68.33;102604.22;6011777;29;20238;-69
2022/08/07 06:34:11;;;;;;;11.43;9.25;;;;;;;16.97;69.28;102610.66;6009459;29;20246;-70
2022/08/07 06:37:32;;;;;;;11.13;8.00;;;;;;;16.94;68.67;102608.22;6009960;29;20282;-71
2022/08/07 06:40:55;;;;;;;8.65;7.85;;;;;;;17.04;67.74;102615.47;6007110;29;20230;-70
2022/08/07 06:44:20;;;;;;;9.32;8.43;;;;;;;17.10;67.78;102614.03;6004081;29;20824;-69
2022/08/07 06:47:43;;;;;;;8.45;7.60;;;;;;;17.13;67.26;102611.03;5996321;29;20239;-68
2022/08/07 06:51:09;;;;;;;6.35;5.75;;;;;;;17.22;66.42;102621.13;5996299;29;20235;-69
2022/08/07 06:54:32;;;;;;;7.35;6.65;;;;;;;17.55;66.13;102620.84;6006062;29;20234;-69
2022/08/07 06:57:57;;;;;;;5.43;4.53;;;;;;;16.96;63.02;102626.16;5999353;29;20608;-70
2022/08/07 07:01:21;;;;;;;6.50;4.18;;;;;;;17.14;62.68;102615.50;6002185;29;20232;-70
2022/08/07 07:04:44;;;;;;;5.30;4.20;;;;;;;17.34;62.97;102623.63;6004004;29;20247;-70
2022/08/07 07:08:07;;;;;;;4.50;3.80;;;;;;;16.91;62.81;102617.53;6012254;29;20237;-69
2022/08/07 07:11:29;;;;;;;5.70;5.00;;;;;;;17.28;62.45;102615.13;6006462;29;20295;-69
2022/08/07 07:14:58;;;;;;;5.50;5.00;;;;;;;17.44;62.21;102618.19;6009710;29;20257;-69
2022/08/07 07:18:23;;;;;;;5.00;4.60;;;;;;;17.51;62.20;102624.88;6007362;29;20234;-69
2022/08/07 07:21:46;;;;;;;4.50;3.75;;;;;;;17.77;60.36;102625.25;5987526;29;20248;-69
2022/08/07 07:25:10;;;;;;;6.63;4.45;;;;;;;17.73;60.36;102618.34;6015573;29;20616;-69
2022/08/07 07:28:37;;;;;;;7.03;4.70;;;;;;;17.75;61.34;102619.06;6014340;29;20261;-69
2022/08/07 07:32:01;;;;;;;6.63;4.47;;;;;;;17.48;62.23;102623.25;6019192;29;20231;-69
2022/08/07 07:35:24;;;;;;;5.88;4.95;;;;;;;17.75;62.34;102619.06;6015653;29;20239;-69
2022/08/07 07:38:47;;;;;;;5.07;4.57;;;;;;;17.79;62.27;102612.31;6019783;29;20557;-69
2022/08/07 07:42:10;;;;;;;5.43;4.93;;;;;;;17.74;62.70;102620.91;6012168;29;20253;-68
2022/08/07 07:45:32;;;;;;;6.47;4.53;;;;;;;18.04;61.21;102612.66;6021654;29;20351;-69
2022/08/07 07:48:55;;;;;;;5.05;4.43;;;;;;;18.28;61.20;102604.91;6021859;29;20230;-70
2022/08/07 07:52:17;;;;;;;4.90;4.40;;;;;;;18.31;59.48;102603.75;6014137;29;20239;-69
2022/08/07 07:55:40;;;;;;;5.15;4.65;;;;;;;18.57;59.54;102609.50;6007665;29;20239;-69
2022/08/07 07:59:03;;;;;;;4.35;3.95;;;;;;;18.64;58.74;102610.66;6016042;29;20243;-69
2022/08/07 08:02:26;;;;;;;5.63;4.80;;;;;;;18.77;58.36;102606.63;6014440;29;20609;-69
2022/08/07 08:05:47;;;;;;;4.43;4.13;;;;;;;18.83;58.72;102602.41;6019410;29;20329;-69
2022/08/07 08:09:09;;;;;;;4.90;4.50;;;;;;;19.03;57.11;102587.69;6020097;29;20235;-69
2022/08/07 08:12:33;;;;;;;7.45;4.68;;;;;;;18.58;57.45;102590.25;6011336;29;20880;-68
2022/08/07 08:15:54;;;;;;;4.32;4.03;;;;;;;18.72;57.21;102589.78;6018911;29;20231;-69
2022/08/07 08:19:17;;;;;;;4.28;3.83;;;;;;;18.80;57.24;102581.72;6018820;29;20239;-69
2022/08/07 08:30:04;;;;;;;4.95;3.97;;;;;;;18.58;51.63;102586.66;6019856;29;20242;-70
2022/08/07 08:33:30;;;;;;;4.72;4.10;;;;;;;19.07;52.17;102579.03;6016304;29;20243;-69
2022/08/07 08:36:52;;;;;;;6.03;4.90;;;;;;;18.83;53.09;102575.97;6023111;29;20234;-69
2022/08/07 08:40:21;;;;;;;7.72;4.97;;;;;;;19.05;52.37;102572.84;6014366;29;20250;-69
2022/08/07 08:43:51;;;;;;;5.70;3.90;;;;;;;19.97;50.82;102576.38;6018560;29;20233;-69
2022/08/07 08:47:21;;;;;;;4.32;4.03;;;;;;;20.26;47.17;102582.53;6016972;29;20235;-69
2022/08/07 08:50:48;;;;;;;4.07;3.45;;;;;;;20.47;47.00;102573.97;6016409;29;20238;-68
2022/08/07 08:54:15;;;;;;;4.13;3.72;;;;;;;19.37;46.82;102569.72;6009913;29;20239;-69
2022/08/07 08:57:42;;;;;;;3.97;3.65;;;;;;;19.79;46.53;102572.78;6013840;29;20239;-69
2022/08/07 09:01:10;;;;;;;4.25;3.80;;;;;;;19.54;47.51;102568.91;6011341;29;20254;-69
2022/08/07 09:04:43;;;;;;;4.32;3.92;;;;;;;19.34;48.61;102569.19;6017268;29;20360;-70
2022/08/07 09:08:14;;;;;;;4.80;4.30;;;;;;;19.71;47.42;102562.59;6009282;29;20245;-70
2022/08/07 09:11:41;;;;;;;3.63;3.42;;;;;;;19.27;47.71;102554.34;6013603;29;20242;-70
2022/08/07 09:15:16;;;;;;;4.30;3.90;;;;;;;19.96;47.60;102566.47;6012610;29;20242;-70
2022/08/07 09:18:56;;;;;;;4.75;3.55;;;;;;;19.76;47.11;102564.88;6008064;29;20235;-69
2022/08/07 09:22:34;;;;;;;5.68;5.18;;;;;;;19.45;48.98;102564.34;6008303;29;20685;-69
2022/08/07 09:26:18;;;;;;;14.43;13.02;;;;;;;19.90;48.28;102562.47;6013804;29;20243;-73
2022/08/07 09:29:52;;;;;;;100.25;91.45;;;;;;;20.03;49.23;102559.34;6017014;29;20238;-72
2022/08/07 09:33:32;;;;;;;548.08;506.23;;;;;;;20.19;48.81;102564.13;6013871;29;20235;-67
2022/08/07 09:37:01;;;;;;;229.00;206.00;;;;;;;20.72;48.62;102553.94;6014136;29;20241;-64
2022/08/07 09:40:29;;;;;;;467.13;434.45;;;;;;;20.83;52.64;102555.56;6014850;29;20234;-71
2022/08/07 09:44:01;;;;;;;23.25;21.40;;;;;;;21.48;45.41;102554.91;6011193;29;20574;-72
2022/08/07 09:47:34;;;;;;;6.18;5.68;;;;;;;21.71;45.63;102547.75;6013544;29;20354;-72
2022/08/07 09:51:08;;;;;;;5.82;5.32;;;;;;;21.33;46.46;102542.81;6014335;29;20227;-71
2022/08/07 09:54:35;;;;;;;4.35;3.95;;;;;;;20.40;47.82;102546.34;6017441;29;20241;-73
2022/08/07 09:58:20;;;;;;;5.07;4.57;;;;;;;20.04;48.98;102544.63;6014267;29;21632;-72
2022/08/07 10:02:05;;;;;;;4.65;3.83;;;;;;;20.04;48.63;102541.03;6015768;29;20230;-71
2022/08/07 10:06:01;;;;;;;7.07;5.18;;;;;;;20.25;49.24;102527.91;6016096;29;20724;-72
2022/08/07 10:09:39;;;;;;;4.80;4.50;;;;;;;20.45;48.27;102532.16;6014988;29;20245;-70
2022/08/07 10:13:17;;;;;;;5.10;4.43;;;;;;;20.59;47.53;102526.09;6015045;29;20241;-70
2022/08/07 10:17:05;;;;;;;4.47;4.00;;;;;;;20.39;48.11;102522.72;6019294;29;20238;-71
2022/08/07 10:20:37;;;;;;;4.70;4.30;;;;;;;21.12;46.27;102506.72;6019713;29;20617;-71
2022/08/07 10:24:25;;;;;;;4.78;4.38;;;;;;;21.09;46.08;102516.13;6015834;29;20238;-71
2022/08/07 10:28:03;;;;;;;4.93;4.45;;;;;;;21.04;46.55;102515.78;6006400;29;20238;-72
2022/08/07 10:31:57;;;;;;;5.38;4.47;;;;;;;20.57;46.57;102511.69;6019161;29;20239;-72
2022/08/07 10:35:26;;;;;;;4.90;4.50;;;;;;;20.88;46.40;102507.41;6011142;29;20242;-70
2022/08/07 10:38:56;;;;;;;6.10;3.75;;;;;;;21.81;44.96;102501.78;6016169;29;20234;-71
2022/08/07 10:42:27;;;;;;;5.15;4.75;;;;;;;22.33;44.20;102505.09;6013040;29;20238;-71
2022/08/07 10:45:52;;;;;;;3.65;3.35;;;;;;;22.85;43.82;102494.53;6012105;29;20282;-72
2022/08/07 10:49:22;;;;;;;4.90;4.43;;;;;;;22.83;42.59;102485.59;6017510;29;20333;-72
2022/08/07 10:52:55;;;;;;;6.07;3.92;;;;;;;22.90;43.13;102476.47;6012529;29;20238;-71
2022/08/07 10:56:31;;;;;;;4.55;4.07;;;;;;;22.03;44.09;102483.78;6010902;29;20242;-71
2022/08/07 11:00:05;;;;;;;5.25;4.75;;;;;;;22.02;44.71;102482.09;6012463;29;20270;-73
2022/08/07 11:03:34;;;;;;;4.13;3.72;;;;;;;22.72;42.84;102473.06;6016582;29;20269;-72
2022/08/07 11:07:05;;;;;;;3.83;3.20;;;;;;;22.83;43.97;102474.59;6010841;29;20318;-71
2022/08/07 11:10:34;;;;;;;4.13;3.75;;;;;;;22.83;43.46;102471.84;6015378;29;20230;-70
2022/08/07 11:13:59;;;;;;;4.05;3.65;;;;;;;23.12;42.33;102468.44;6011199;29;20254;-71
2022/08/07 11:17:28;;;;;;;3.95;3.65;;;;;;;22.90;41.89;102450.84;6020139;29;20230;-71
2022/08/07 11:20:56;;;;;;;4.45;3.95;;;;;;;22.80;41.54;102467.53;6011436;29;20234;-70
2022/08/07 11:24:24;;;;;;;4.03;3.45;;;;;;;23.04;41.44;102461.09;6011027;29;20775;-70
2022/08/07 11:27:52;;;;;;;5.22;4.63;;;;;;;23.56;41.52;102467.72;6013649;29;20265;-69
2022/08/07 11:31:23;;;;;;;4.07;3.70;;;;;;;23.39;41.36;102457.84;6021639;29;20667;-70
2022/08/07 11:34:48;;;;;;;3.90;3.60;;;;;;;23.80;40.84;102448.25;6011266;29;20258;-71
2022/08/07 11:38:15;;;;;;;3.63;3.35;;;;;;;24.33;40.33;102447.28;6008999;29;20576;-72
2022/08/07 11:41:42;;;;;;;3.70;3.40;;;;;;;23.05;39.83;102454.56;6014732;29;20235;-72
2022/08/07 11:45:15;;;;;;;4.03;3.35;;;;;;;22.44;41.28;102458.00;6016586;29;20235;-73
2022/08/07 11:48:58;;;;;;;3.13;2.83;;;;;;;23.28;39.76;102447.19;6015154;29;20321;-71
2022/08/07 11:52:39;;;;;;;3.90;3.55;;;;;;;22.36;40.72;102454.41;6015099;29;20250;-73
2022/08/07 11:56:16;;;;;;;4.38;3.58;;;;;;;22.67;40.73;102445.25;6014481;29;20361;-71
2022/08/07 11:59:55;;;;;;;2.60;2.40;;;;;;;22.99;41.79;102442.38;6017312;29;20238;-71
2022/08/07 12:03:46;;;;;;;4.00;3.70;;;;;;;23.11;42.01;102433.72;6024477;29;20331;-72
2022/08/07 12:07:14;;;;;;;3.30;3.10;;;;;;;23.15;41.08;102435.06;6026461;29;20334;-72
2022/08/07 12:10:40;;;;;;;4.25;3.92;;;;;;;23.29;40.79;102435.16;6026062;29;20234;-72
2022/08/07 12:14:07;;;;;;;4.40;3.63;;;;;;;24.65;39.62;102417.63;6012037;29;20313;-72
2022/08/07 12:17:37;;;;;;;3.97;3.55;;;;;;;24.07;39.92;102416.56;6023589;29;20239;-71
2022/08/07 12:21:10;;;;;;;3.97;3.65;;;;;;;24.54;39.63;102422.59;6022121;29;20231;-71
2022/08/07 12:24:37;;;;;;;3.33;3.13;;;;;;;25.51;36.65;102407.53;6027022;29;20227;-71
2022/08/07 12:28:03;;;;;;;4.57;4.18;;;;;;;24.84;37.16;102415.19;6025297;29;20246;-71
2022/08/07 12:31:29;;;;;;;2.90;2.70;;;;;;;26.63;34.95;102406.56;6022108;29;20624;-72
2022/08/07 12:34:53;;;;;;;3.78;3.25;;;;;;;30.47;28.76;102386.56;6020828;29;20333;-72
2022/08/07 12:38:15;;;;;;;3.70;3.33;;;;;;;32.38;27.00;102382.69;6008809;29;20230;-72
2022/08/07 12:41:38;;;;;;;4.68;3.15;;;;;;;33.51;24.88;102394.97;6014495;29;20239;-71
2022/08/07 12:45:04;;;;;;;4.07;3.70;;;;;;;33.66;24.54;102391.59;6017290;29;20316;-72
2022/08/07 12:48:32;;;;;;;5.60;2.90;;;;;;;32.97;25.58;102387.13;6016597;29;20237;-72
2022/08/07 12:52:04;;;;;;;3.08;2.88;;;;;;;28.52;29.58;102399.72;6017923;29;20230;-71
2022/08/07 12:55:30;;;;;;;3.03;2.83;;;;;;;27.25;32.68;102395.34;6014634;29;20242;-73
2022/08/07 12:58:52;;;;;;;3.10;2.90;;;;;;;27.48;33.41;102393.94;6008002;29;20235;-72
2022/08/07 13:02:42;;;;;;;3.25;2.95;;;;;;;26.03;35.13;102396.13;6016912;29;20333;-72
2022/08/07 13:06:15;;;;;;;3.25;3.05;;;;;;;24.09;36.17;102402.59;6015582;29;21628;-72
2022/08/07 13:09:52;;;;;;;3.65;3.35;;;;;;;24.27;38.57;102408.59;6017077;29;20318;-72
2022/08/07 13:13:28;;;;;;;3.45;3.20;;;;;;;24.36;38.09;102396.44;6018551;29;20246;-72
2022/08/07 13:16:59;;;;;;;3.40;3.20;;;;;;;24.23;38.79;102393.47;6022308;29;20230;-72
2022/08/07 13:20:30;;;;;;;3.90;3.60;;;;;;;24.20;38.09;102385.59;6021889;29;20337;-71
2022/08/07 13:23:58;;;;;;;3.58;3.38;;;;;;;24.19;37.88;102386.63;6020802;29;20254;-72
2022/08/07 13:27:27;;;;;;;4.25;3.85;;;;;;;24.40;39.47;102386.75;6024205;29;20226;-72
2022/08/07 13:30:54;;;;;;;3.83;3.42;;;;;;;26.75;35.39;102383.66;6018836;29;20226;-72
2022/08/07 13:34:26;;;;;;;4.78;3.90;;;;;;;25.66;37.32;102375.16;6021272;29;20235;-72
2022/08/07 13:37:56;;;;;;;3.78;3.47;;;;;;;25.32;36.26;102380.53;6022928;29;20226;-71
2022/08/07 13:41:29;;;;;;;3.55;3.25;;;;;;;26.86;33.60;102365.63;6022017;29;20229;-72
2022/08/07 13:44:53;;;;;;;3.13;2.80;;;;;;;28.45;30.97;102370.03;6018975;29;20242;-71
2022/08/07 13:48:15;;;;;;;3.53;3.22;;;;;;;28.15;31.41;102373.53;6018442;29;20230;-72
2022/08/07 13:51:38;;;;;;;3.20;3.00;;;;;;;32.26;25.93;102363.16;6020381;29;20326;-72
2022/08/07 13:55:05;;;;;;;3.38;3.17;;;;;;;33.70;23.95;102350.81;6016171;29;20626;-71
2022/08/07 14:02:11;;;;;;;3.33;3.13;;;;;;;32.53;26.41;102351.50;6012575;29;20394;-72
2022/08/07 14:05:33;;;;;;;3.75;3.03;;;;;;;29.04;29.40;102347.63;6018625;29;20234;-72
2022/08/07 14:08:55;;;;;;;3.20;2.90;;;;;;;28.29;31.25;102353.00;6021526;29;20767;-72
2022/08/07 14:12:24;;;;;;;4.80;3.85;;;;;;;26.63;33.38;102349.31;6020618;29;20246;-72
2022/08/07 14:15:53;;;;;;;4.65;3.47;;;;;;;25.80;33.25;102349.38;6019360;29;20239;-72
2022/08/07 14:19:27;;;;;;;3.42;3.22;;;;;;;26.02;33.77;102344.63;6015660;29;20241;-71
2022/08/07 14:22:52;;;;;;;4.47;3.55;;;;;;;25.05;34.95;102339.88;6020539;29;20242;-72
2022/08/07 14:26:17;;;;;;;4.45;3.72;;;;;;;26.71;32.47;102338.06;6015251;29;20616;-72
2022/08/07 14:29:47;;;;;;;3.55;3.20;;;;;;;27.22;32.75;102324.63;6006377;29;20235;-73
2022/08/07 14:33:09;;;;;;;3.47;3.28;;;;;;;27.20;31.87;102320.34;6016345;29;20230;-72
2022/08/07 14:36:33;;;;;;;2.95;2.65;;;;;;;26.73;32.82;102326.78;6022536;29;20243;-72
2022/08/07 14:39:55;;;;;;;4.63;3.08;;;;;;;27.30;33.28;102323.56;6015377;29;20245;-72
2022/08/07 14:43:17;;;;;;;3.90;3.58;;;;;;;26.32;33.18;102331.47;6015217;29;20231;-72
2022/08/07 14:46:39;;;;;;;3.00;2.80;;;;;;;25.25;35.26;102340.94;6014026;29;20633;-69
2022/08/07 14:50:06;;;;;;;7.03;3.30;;;;;;;26.11;35.28;102327.72;6010991;29;20250;-70
2022/08/07 14:53:33;;;;;;;3.53;3.13;;;;;;;26.39;34.13;102313.84;6013933;29;20810;-74
2022/08/07 14:56:55;;;;;;;3.50;3.00;;;;;;;26.65;35.29;102308.44;6008415;29;20246;-69
2022/08/07 15:00:18;;;;;;;4.43;3.95;;;;;;;25.72;34.70;102301.69;6004441;29;21164;-68
2022/08/07 15:03:41;;;;;;;3.70;3.40;;;;;;;25.99;36.26;102307.19;6003693;29;20323;-71
2022/08/07 15:07:02;;;;;;;3.90;3.60;;;;;;;26.69;35.62;102303.31;6010156;29;20601;-71
2022/08/07 15:10:27;;;;;;;4.28;3.17;;;;;;;27.15;36.03;102304.34;6011975;29;20238;-69
2022/08/07 15:13:53;;;;;;;3.80;3.15;;;;;;;27.56;34.67;102302.28;6008652;29;22037;-71
2022/08/07 15:17:16;;;;;;;4.05;3.33;;;;;;;26.97;34.04;102304.13;6005554;29;20537;-72
2022/08/07 15:20:39;;;;;;;5.28;4.05;;;;;;;26.01;34.87;102304.22;6009762;29;20239;-71
2022/08/07 15:24:03;;;;;;;4.53;3.30;;;;;;;25.67;35.90;102305.03;6018654;29;20685;-71
2022/08/07 15:27:28;;;;;;;4.10;3.78;;;;;;;25.54;36.77;102299.41;6020992;29;20336;-72
2022/08/07 15:30:51;;;;;;;3.10;2.90;;;;;;;25.48;37.40;102296.56;6018807;29;20610;-70
2022/08/07 15:34:12;;;;;;;3.78;3.47;;;;;;;25.69;36.78;102289.09;6011137;29;20238;-72
2022/08/07 15:37:36;;;;;;;3.58;3.38;;;;;;;25.88;36.00;102291.19;6020911;29;20256;-72
2022/08/07 15:41:00;;;;;;;3.22;2.92;;;;;;;26.84;34.06;102288.31;6022399;29;20247;-73
2022/08/07 15:44:25;;;;;;;2.80;2.60;;;;;;;27.17;35.04;102285.59;6019066;29;20428;-71
2022/08/07 15:47:55;;;;;;;3.55;2.80;;;;;;;26.92;34.29;102279.81;6003689;29;20817;-72
2022/08/07 15:51:18;;;;;;;3.08;2.88;;;;;;;27.21;34.22;102278.59;5992502;29;20230;-71
2022/08/07 15:54:41;;;;;;;3.33;3.05;;;;;;;26.55;34.64;102271.13;5979662;29;20262;-73
2022/08/07 15:58:03;;;;;;;4.93;3.25;;;;;;;26.81;34.65;102268.47;5987438;29;20231;-73
2022/08/07 16:01:28;;;;;;;4.57;3.22;;;;;;;26.72;34.83;102265.03;5988171;29;20492;-73
2022/08/07 16:04:57;;;;;;;3.03;2.83;;;;;;;27.10;34.35;102261.75;5988978;29;20242;-74
2022/08/07 16:08:22;;;;;;;3.38;3.08;;;;;;;27.07;33.87;102264.94;5999749;29;20230;-72